Time;durP1;ratioP1;P1;durP2;ratioP2;P2;SDS_P1;SDS_P2;PMS_P1;PMS_P2;Temp;Humidity;BMP_temperature;BMP_pressure;BME280_temperature;BME280_humidity;BME280_pressure;Samples;Min_cycle;Max_cycle;Signal;HPM_P1;HPM_P2
2022/11/26 00:01:20;;;;;;;22.17;10.20;;;7.90;99.90;;;;;;5056182;28;20269;-63
2022/11/26 00:03:46;;;;;;;16.60;8.53;;;7.90;99.90;;;;;;5054927;28;20185;-63
2022/11/26 00:06:37;;;;;;;18.63;9.83;;;8.00;99.90;;;;;;5067878;28;20189;-63
2022/11/26 00:09:05;;;;;;;16.83;8.47;;;8.10;99.90;;;;;;5071004;28;20188;-63
2022/11/26 00:11:31;;;;;;;12.77;7.43;;;7.80;99.90;;;;;;5055909;28;20236;-63
2022/11/26 00:13:56;;;;;;;19.03;9.50;;;7.80;99.90;;;;;;5059788;28;20208;-63
2022/11/26 00:16:22;;;;;;;8.50;7.67;;;8.00;99.90;;;;;;5054020;28;20218;-63
2022/11/26 00:18:48;;;;;;;13.00;8.17;;;7.90;99.90;;;;;;5040140;28;20190;-63
2022/11/26 00:21:21;;;;;;;17.10;8.33;;;7.80;99.90;;;;;;5055147;28;20185;-62
2022/11/26 00:23:47;;;;;;;18.93;9.00;;;8.00;99.90;;;;;;5055104;28;20284;-62
2022/11/26 00:26:16;;;;;;;12.73;8.13;;;8.10;99.90;;;;;;5066984;28;20228;-63
2022/11/26 00:28:54;;;;;;;17.77;9.90;;;8.20;99.90;;;;;;5060751;28;20243;-62
2022/11/26 00:31:20;;;;;;;16.03;8.80;;;8.10;99.90;;;;;;5070785;28;20177;-63
2022/11/26 00:33:46;;;;;;;24.77;8.13;;;8.00;99.90;;;;;;5055416;28;20533;-63
2022/11/26 00:36:20;;;;;;;14.80;8.37;;;8.10;99.90;;;;;;5062251;28;20212;-63
2022/11/26 00:38:50;;;;;;;11.93;8.50;;;8.00;99.90;;;;;;5059221;28;20318;-63
2022/11/26 00:41:18;;;;;;;13.50;7.40;;;7.90;99.90;;;;;;5059765;28;20695;-63
2022/11/26 00:43:45;;;;;;;14.07;8.10;;;7.80;99.90;;;;;;5080657;28;20213;-63
2022/11/26 00:46:15;;;;;;;14.73;7.90;;;7.60;99.90;;;;;;5070349;28;20185;-63
2022/11/26 00:48:41;;;;;;;14.33;7.03;;;7.40;99.90;;;;;;5065479;28;20635;-63
2022/11/26 00:51:31;;;;;;;11.90;8.10;;;7.30;99.90;;;;;;5056232;28;20197;-63
2022/11/26 00:54:00;;;;;;;11.07;6.37;;;7.20;99.90;;;;;;5057258;28;20190;-63
2022/11/26 00:56:26;;;;;;;16.60;7.33;;;7.20;99.90;;;;;;5055700;28;20210;-64
2022/11/26 00:58:52;;;;;;;15.93;6.47;;;7.20;99.90;;;;;;5054231;28;20264;-63
2022/11/26 01:01:23;;;;;;;10.63;7.37;;;7.30;99.90;;;;;;5057080;28;20232;-63
2022/11/26 01:03:49;;;;;;;17.40;7.87;;;7.40;99.90;;;;;;5059909;28;20311;-61
2022/11/26 01:06:19;;;;;;;16.60;7.17;;;7.70;99.90;;;;;;5053883;28;20186;-61
2022/11/26 01:08:45;;;;;;;12.03;5.77;;;7.80;99.90;;;;;;5062916;28;20181;-61
2022/11/26 01:11:15;;;;;;;11.13;7.50;;;7.90;99.90;;;;;;5058656;28;20180;-61
2022/11/26 01:13:42;;;;;;;10.93;6.40;;;7.80;99.90;;;;;;5058849;28;20193;-62
2022/11/26 01:16:15;;;;;;;9.30;5.93;;;7.50;99.90;;;;;;5052525;28;20688;-63
2022/11/26 01:18:41;;;;;;;13.43;6.03;;;7.40;99.90;;;;;;5054238;28;20212;-62
2022/11/26 01:21:09;;;;;;;13.63;6.67;;;7.50;99.90;;;;;;5058674;28;20688;-62
2022/11/26 01:23:35;;;;;;;12.80;8.37;;;7.60;99.90;;;;;;5053780;28;20174;-62
2022/11/26 01:26:01;;;;;;;10.77;6.50;;;7.50;99.90;;;;;;5096679;28;20192;-62
2022/11/26 01:28:26;;;;;;;11.10;7.17;;;7.40;99.90;;;;;;5071232;28;20197;-62
2022/11/26 01:30:52;;;;;;;10.87;6.40;;;7.50;99.90;;;;;;5079561;28;20174;-62
2022/11/26 01:33:18;;;;;;;16.63;6.93;;;7.40;99.90;;;;;;5062758;28;20218;-63
2022/11/26 01:35:43;;;;;;;14.13;8.23;;;7.50;99.90;;;;;;5060964;28;20670;-61
2022/11/26 01:38:13;;;;;;;14.53;7.00;;;7.80;99.90;;;;;;5059819;28;20190;-61
2022/11/26 01:41:08;;;;;;;11.57;6.63;;;7.90;99.90;;;;;;5067869;28;20198;-61
2022/11/26 01:43:42;;;;;;;12.47;6.77;;;8.00;99.90;;;;;;5053232;28;20607;-61
2022/11/26 01:46:19;;;;;;;13.17;6.90;;;7.80;99.90;;;;;;5053692;28;20205;-61
2022/11/26 01:48:46;;;;;;;7.13;5.57;;;7.80;99.90;;;;;;5052798;28;20173;-62
2022/11/26 01:51:14;;;;;;;13.13;6.20;;;7.80;99.90;;;;;;5052401;28;20251;-62
2022/11/26 01:53:46;;;;;;;16.00;7.40;;;7.60;99.90;;;;;;5052623;28;20186;-62
2022/11/26 01:56:25;;;;;;;10.13;5.70;;;7.60;99.90;;;;;;5059312;28;20259;-62
2022/11/26 01:58:56;;;;;;;15.20;6.60;;;7.60;99.90;;;;;;5052757;28;20181;-62
2022/11/26 02:01:22;;;;;;;13.50;6.67;;;7.60;99.90;;;;;;5060580;28;20170;-63
2022/11/26 02:04:01;;;;;;;10.80;6.07;;;7.50;99.90;;;;;;5052596;28;20708;-63
2022/11/26 02:06:32;;;;;;;15.83;5.73;;;7.30;99.90;;;;;;5051541;28;20170;-63
2022/11/26 02:09:01;;;;;;;13.70;5.97;;;7.10;99.90;;;;;;5053160;28;20208;-65
2022/11/26 02:11:27;;;;;;;16.30;6.00;;;7.20;99.90;;;;;;5062108;28;20235;-63
2022/11/26 02:14:26;;;;;;;14.13;6.03;;;7.30;99.90;;;;;;5052830;28;20210;-63
2022/11/26 02:17:13;;;;;;;8.03;5.40;;;7.40;99.90;;;;;;5051085;28;20578;-63
2022/11/26 02:20:00;;;;;;;6.77;5.10;;;7.40;99.90;;;;;;5052539;28;20194;-63
2022/11/26 02:22:48;;;;;;;11.30;5.57;;;7.30;99.90;;;;;;5052985;28;20214;-63
2022/11/26 02:25:32;;;;;;;11.97;5.33;;;7.20;99.90;;;;;;5053965;28;20189;-63
2022/11/26 02:28:35;;;;;;;10.33;4.67;;;7.10;99.90;;;;;;5051807;28;20717;-63
2022/11/26 02:31:22;;;;;;;21.30;5.90;;;7.20;99.90;;;;;;5052339;28;20174;-62
2022/11/26 02:34:06;;;;;;;8.60;4.67;;;7.20;99.90;;;;;;5063523;28;20174;-62
2022/11/26 02:36:43;;;;;;;10.47;5.77;;;7.30;99.90;;;;;;5071957;28;20266;-63
2022/11/26 02:39:21;;;;;;;8.03;4.97;;;7.50;99.90;;;;;;5055334;28;20215;-62
2022/11/26 02:41:50;;;;;;;8.43;5.53;;;7.70;99.90;;;;;;5057445;28;20185;-63
2022/11/26 02:44:19;;;;;;;11.70;6.50;;;7.50;99.90;;;;;;5053065;28;20264;-62
2022/11/26 02:46:48;;;;;;;14.07;6.83;;;7.60;99.90;;;;;;5056440;28;20269;-62
2022/11/26 02:49:19;;;;;;;16.80;5.57;;;7.70;99.90;;;;;;5066792;28;20173;-63
2022/11/26 02:51:50;;;;;;;12.50;5.37;;;7.50;99.90;;;;;;5055669;28;20180;-63
2022/11/26 02:54:18;;;;;;;9.00;5.90;;;7.30;99.90;;;;;;5066245;28;20185;-63
2022/11/26 02:56:43;;;;;;;7.73;5.60;;;7.30;99.90;;;;;;5059649;28;20206;-62
2022/11/26 02:59:10;;;;;;;13.90;5.83;;;7.40;99.90;;;;;;5060527;28;20541;-63
2022/11/26 03:01:43;;;;;;;8.27;5.77;;;7.40;99.90;;;;;;5059073;28;20312;-62
2022/11/26 03:04:19;;;;;;;9.67;5.83;;;7.50;99.90;;;;;;5068937;28;20181;-62
2022/11/26 03:06:46;;;;;;;10.87;5.33;;;7.50;99.90;;;;;;5062601;28;20182;-62
2022/11/26 03:09:11;;;;;;;13.83;6.93;;;7.50;99.90;;;;;;5060523;28;20642;-62
2022/11/26 03:11:37;;;;;;;11.23;6.30;;;7.60;99.90;;;;;;5056022;28;20190;-63
2022/11/26 03:14:03;;;;;;;8.97;5.50;;;7.60;99.90;;;;;;5071120;28;20709;-63
2022/11/26 03:16:29;;;;;;;12.37;5.57;;;7.60;99.90;;;;;;5066552;28;20252;-62
2022/11/26 03:18:54;;;;;;;10.77;5.80;;;7.50;99.90;;;;;;5066052;28;20189;-62
2022/11/26 03:21:20;;;;;;;15.23;6.30;;;7.60;99.90;;;;;;5070146;28;20182;-63
2022/11/26 03:23:46;;;;;;;11.83;5.37;;;7.70;99.90;;;;;;5054758;28;20281;-63
2022/11/26 03:26:11;;;;;;;10.40;5.20;;;7.60;99.90;;;;;;5055685;28;20228;-63
2022/11/26 03:28:37;;;;;;;9.50;5.07;;;7.60;99.90;;;;;;5056345;28;20584;-63
2022/11/26 03:31:03;;;;;;;11.77;5.60;;;7.50;99.90;;;;;;5054479;28;20232;-63
2022/11/26 03:33:28;;;;;;;10.83;4.10;;;7.50;99.90;;;;;;5054311;28;20248;-63
2022/11/26 03:35:54;;;;;;;10.13;4.47;;;7.50;99.90;;;;;;5060379;28;20216;-63
2022/11/26 03:38:20;;;;;;;13.17;5.00;;;7.70;99.90;;;;;;5055832;28;20277;-63
2022/11/26 03:40:55;;;;;;;8.00;4.63;;;7.60;99.90;;;;;;5072273;28;20194;-63
2022/11/26 03:43:20;;;;;;;11.27;4.87;;;7.60;99.90;;;;;;5056502;28;20196;-63
2022/11/26 03:45:46;;;;;;;14.63;4.33;;;7.50;99.90;;;;;;5061916;28;20186;-63
2022/11/26 03:48:11;;;;;;;7.17;4.63;;;7.50;99.90;;;;;;5054935;28;20190;-62
2022/11/26 03:50:37;;;;;;;10.80;3.63;;;7.50;99.90;;;;;;5062950;28;20182;-63
2022/11/26 03:53:03;;;;;;;13.37;7.13;;;7.30;99.90;;;;;;5055987;28;20210;-62
2022/11/26 03:55:28;;;;;;;10.33;4.50;;;7.40;99.90;;;;;;5087462;28;20205;-63
2022/11/26 03:57:54;;;;;;;9.97;5.87;;;7.50;99.90;;;;;;5062110;28;20644;-63
2022/11/26 04:00:20;;;;;;;13.93;4.47;;;7.50;99.90;;;;;;5055979;28;20647;-63
2022/11/26 04:02:46;;;;;;;11.27;6.03;;;7.50;99.90;;;;;;5054797;28;20210;-63
2022/11/26 04:05:11;;;;;;;7.77;4.53;;;7.40;99.90;;;;;;5073667;28;20270;-63
2022/11/26 04:07:37;;;;;;;11.80;4.10;;;7.50;99.90;;;;;;5055896;28;20635;-63
2022/11/26 04:10:03;;;;;;;7.67;4.53;;;7.50;99.90;;;;;;5055936;28;20218;-63
2022/11/26 04:12:29;;;;;;;5.97;4.23;;;7.70;99.90;;;;;;5061276;28;20199;-63
2022/11/26 04:14:55;;;;;;;11.37;5.57;;;7.70;99.90;;;;;;5064421;28;20182;-63
2022/11/26 04:17:21;;;;;;;8.37;4.27;;;7.60;99.90;;;;;;5065041;28;20659;-63
2022/11/26 04:19:47;;;;;;;6.17;3.77;;;7.50;99.90;;;;;;5053655;28;20236;-63
2022/11/26 04:22:13;;;;;;;10.27;4.87;;;7.50;99.90;;;;;;5057598;28;20190;-63
2022/11/26 04:24:38;;;;;;;11.13;4.60;;;7.40;99.90;;;;;;5064874;28;20190;-63
2022/11/26 04:27:04;;;;;;;7.87;3.97;;;7.40;99.90;;;;;;5065988;28;20565;-63
2022/11/26 04:29:30;;;;;;;13.33;5.07;;;7.30;99.90;;;;;;5060990;28;20268;-63
2022/11/26 04:31:55;;;;;;;15.17;4.30;;;7.20;99.90;;;;;;5064628;28;20709;-63
2022/11/26 04:34:21;;;;;;;5.50;4.13;;;7.10;99.90;;;;;;5070388;28;20194;-63
2022/11/26 04:36:47;;;;;;;6.50;4.20;;;7.20;99.90;;;;;;5057042;28;20209;-63
2022/11/26 04:39:12;;;;;;;8.00;5.03;;;7.50;99.90;;;;;;5067560;28;20682;-63
2022/11/26 04:41:38;;;;;;;8.97;4.23;;;7.50;99.90;;;;;;5068783;28;20190;-63
2022/11/26 04:44:04;;;;;;;12.23;4.17;;;7.50;99.90;;;;;;5091923;28;20650;-63
2022/11/26 04:46:30;;;;;;;9.23;4.00;;;7.60;99.90;;;;;;5067850;28;20280;-63
2022/11/26 04:48:56;;;;;;;6.93;3.97;;;7.80;99.90;;;;;;5062154;28;20601;-63
2022/11/26 04:51:21;;;;;;;5.17;3.63;;;7.70;99.90;;;;;;5055870;28;20269;-63
2022/11/26 04:53:47;;;;;;;8.70;4.73;;;7.70;99.90;;;;;;5052897;28;20268;-63
2022/11/26 04:56:13;;;;;;;6.57;3.37;;;7.70;99.90;;;;;;5057103;28;20247;-63
2022/11/26 04:58:38;;;;;;;13.20;4.33;;;7.70;99.90;;;;;;5062945;28;20201;-63
2022/11/26 05:01:04;;;;;;;8.87;4.30;;;7.90;99.90;;;;;;5054490;28;20185;-63
2022/11/26 05:03:30;;;;;;;8.53;3.80;;;7.90;99.90;;;;;;5053473;28;20194;-63
2022/11/26 05:05:56;;;;;;;10.10;4.13;;;7.80;99.90;;;;;;5054711;28;20284;-62
2022/11/26 05:08:21;;;;;;;11.67;4.23;;;7.90;99.90;;;;;;5067097;28;20189;-62
2022/11/26 05:10:53;;;;;;;8.00;2.97;;;8.00;99.90;;;;;;5058942;28;20189;-61
2022/11/26 05:13:18;;;;;;;11.97;4.33;;;8.10;99.90;;;;;;5054199;28;20205;-62
2022/11/26 05:15:44;;;;;;;9.17;4.30;;;8.00;99.90;;;;;;5058207;28;20220;-62
2022/11/26 05:18:10;;;;;;;10.33;4.10;;;8.00;99.90;;;;;;5053520;28;20221;-61
2022/11/26 05:20:36;;;;;;;10.20;4.13;;;8.00;99.90;;;;;;5069364;28;20186;-61
2022/11/26 05:23:01;;;;;;;7.63;3.57;;;8.00;99.90;;;;;;5067687;28;20185;-62
2022/11/26 05:25:27;;;;;;;8.13;4.83;;;7.90;99.90;;;;;;5058712;28;20200;-63
2022/11/26 05:27:53;;;;;;;12.27;4.67;;;7.80;99.90;;;;;;5071105;28;20189;-62
2022/11/26 05:30:18;;;;;;;4.53;3.37;;;7.80;99.90;;;;;;5060914;28;20221;-62
2022/11/26 05:32:44;;;;;;;8.73;3.63;;;7.70;99.90;;;;;;5067724;28;20186;-62
2022/11/26 05:35:10;;;;;;;12.80;4.20;;;7.70;99.90;;;;;;5051702;28;20552;-62
2022/11/26 05:37:36;;;;;;;7.73;4.00;;;7.70;99.90;;;;;;5066759;28;20246;-62
2022/11/26 05:40:02;;;;;;;12.70;5.20;;;7.90;99.90;;;;;;5070378;28;20189;-62
2022/11/26 05:42:27;;;;;;;9.30;4.70;;;8.00;99.90;;;;;;5072089;28;20196;-62
2022/11/26 05:44:53;;;;;;;16.90;5.80;;;8.00;99.90;;;;;;5056425;28;20190;-62
2022/11/26 05:47:19;;;;;;;7.07;3.67;;;8.00;99.90;;;;;;5068583;28;20201;-62
2022/11/26 05:49:44;;;;;;;15.33;4.57;;;7.90;99.90;;;;;;5063024;28;20185;-62
2022/11/26 05:52:10;;;;;;;19.83;5.27;;;7.90;99.90;;;;;;5059257;28;20185;-62
2022/11/26 05:54:36;;;;;;;9.87;4.03;;;7.90;99.90;;;;;;5061590;28;20295;-62
2022/11/26 05:57:01;;;;;;;16.53;5.53;;;7.90;99.90;;;;;;5064870;28;20282;-62
2022/11/26 05:59:27;;;;;;;12.13;4.40;;;7.90;99.90;;;;;;5068107;28;20654;-63
2022/11/26 06:01:53;;;;;;;10.80;5.33;;;8.00;99.90;;;;;;5055344;28;20212;-62
2022/11/26 06:04:18;;;;;;;10.33;5.37;;;8.00;99.90;;;;;;5058965;28;20275;-62
2022/11/26 06:06:44;;;;;;;9.57;5.70;;;8.00;99.90;;;;;;5058900;28;20596;-62
2022/11/26 06:09:10;;;;;;;7.63;4.83;;;8.00;99.90;;;;;;5059136;28;20186;-62
2022/11/26 06:11:35;;;;;;;11.33;4.73;;;8.00;99.90;;;;;;5058574;28;20197;-62
2022/11/26 06:14:01;;;;;;;13.07;5.77;;;7.90;99.90;;;;;;5052046;28;20601;-62
2022/11/26 06:16:27;;;;;;;7.90;3.70;;;7.90;99.90;;;;;;5062576;28;20598;-63
2022/11/26 06:18:52;;;;;;;10.10;5.30;;;7.70;99.90;;;;;;5063933;28;20221;-63
2022/11/26 06:21:18;;;;;;;7.17;4.10;;;7.70;99.90;;;;;;5063114;28;20612;-63
2022/11/26 06:23:43;;;;;;;11.87;4.73;;;7.70;99.90;;;;;;5051408;28;20194;-63
2022/11/26 06:26:11;;;;;;;11.70;5.20;;;7.80;99.90;;;;;;5067112;28;20200;-63
2022/11/26 06:28:37;;;;;;;6.83;4.13;;;7.60;99.90;;;;;;5070702;28;20185;-63
2022/11/26 06:31:03;;;;;;;6.80;3.87;;;7.40;99.90;;;;;;5056771;28;20181;-65
2022/11/26 06:33:29;;;;;;;7.43;3.83;;;7.10;99.90;;;;;;5064420;28;20281;-62
2022/11/26 06:36:02;;;;;;;11.93;4.20;;;7.00;99.90;;;;;;5063786;28;20324;-63
2022/11/26 06:38:28;;;;;;;9.33;4.30;;;6.90;99.90;;;;;;5061867;28;20673;-63
2022/11/26 06:41:02;;;;;;;9.77;3.50;;;6.90;99.90;;;;;;5054964;28;20194;-62
2022/11/26 06:43:29;;;;;;;12.03;4.30;;;6.90;99.90;;;;;;5067487;28;20217;-62
2022/11/26 06:46:00;;;;;;;6.83;3.43;;;7.30;99.90;;;;;;5056898;28;20605;-62
2022/11/26 06:48:25;;;;;;;7.73;4.50;;;7.40;99.90;;;;;;5061816;28;20272;-62
2022/11/26 06:50:51;;;;;;;12.03;5.00;;;7.50;99.90;;;;;;5057310;28;20217;-62
2022/11/26 06:53:17;;;;;;;10.70;4.20;;;7.60;99.90;;;;;;5066525;28;20185;-62
2022/11/26 06:55:43;;;;;;;12.27;4.43;;;7.70;99.90;;;;;;5047584;28;20301;-61
2022/11/26 06:58:09;;;;;;;5.57;3.70;;;7.80;99.90;;;;;;5063231;28;20281;-62
2022/11/26 07:00:34;;;;;;;6.80;3.40;;;7.70;99.90;;;;;;5086013;28;20185;-62
2022/11/26 07:03:00;;;;;;;4.43;3.50;;;7.70;99.90;;;;;;5060783;28;20189;-62
2022/11/26 07:05:26;;;;;;;6.27;3.47;;;7.60;99.90;;;;;;5063710;28;20182;-63
2022/11/26 07:07:52;;;;;;;10.00;5.67;;;7.70;99.90;;;;;;5051750;28;20186;-62
2022/11/26 07:10:17;;;;;;;10.83;5.73;;;7.60;99.90;;;;;;5064309;28;20228;-61
2022/11/26 07:12:43;;;;;;;8.63;4.77;;;7.50;99.90;;;;;;5067331;28;20638;-61
2022/11/26 07:15:10;;;;;;;6.97;4.63;;;7.40;99.90;;;;;;5056413;28;20194;-63
2022/11/26 07:17:35;;;;;;;10.07;4.27;;;7.50;99.90;;;;;;5064712;28;20191;-64
2022/11/26 07:20:01;;;;;;;18.27;4.97;;;7.40;99.90;;;;;;5034872;28;20539;-64
2022/11/26 07:22:27;;;;;;;9.23;4.50;;;7.40;99.90;;;;;;5056487;28;20186;-63
2022/11/26 07:24:52;;;;;;;10.30;5.07;;;7.50;99.90;;;;;;5068924;28;20182;-64
2022/11/26 07:27:18;;;;;;;10.03;4.17;;;7.70;99.90;;;;;;5063213;28;20252;-64
2022/11/26 07:29:43;;;;;;;8.93;4.43;;;7.90;99.90;;;;;;5058845;28;20235;-64
2022/11/26 07:32:09;;;;;;;10.47;5.73;;;7.80;99.90;;;;;;5069731;28;20243;-64
2022/11/26 07:34:35;;;;;;;7.60;5.00;;;7.50;99.90;;;;;;5059627;28;20276;-64
2022/11/26 07:37:00;;;;;;;8.77;5.57;;;7.50;99.90;;;;;;5064529;28;20654;-65
2022/11/26 07:39:26;;;;;;;13.70;5.90;;;7.70;99.90;;;;;;5068400;28;20193;-65
2022/11/26 07:41:52;;;;;;;6.43;5.30;;;7.80;99.90;;;;;;5051996;28;20564;-65
2022/11/26 07:44:18;;;;;;;15.27;6.00;;;7.90;99.90;;;;;;5053439;28;20190;-64
2022/11/26 07:46:43;;;;;;;7.67;4.73;;;8.00;99.90;;;;;;5063034;28;20520;-64
2022/11/26 07:49:09;;;;;;;5.90;4.10;;;7.90;99.90;;;;;;5060261;28;20225;-64
2022/11/26 07:51:35;;;;;;;7.47;5.00;;;8.00;99.90;;;;;;5053003;28;20190;-64
2022/11/26 07:54:04;;;;;;;13.47;5.93;;;8.10;99.90;;;;;;5055193;28;20178;-63
2022/11/26 07:56:30;;;;;;;10.63;5.03;;;8.10;99.90;;;;;;5061376;28;20760;-63
2022/11/26 07:58:56;;;;;;;10.47;6.03;;;8.20;99.90;;;;;;5087507;28;20283;-64
2022/11/26 08:01:28;;;;;;;10.93;5.30;;;8.10;99.90;;;;;;5073990;28;20552;-64
2022/11/26 08:03:54;;;;;;;10.60;4.77;;;8.10;99.90;;;;;;5059290;28;20219;-64
2022/11/26 08:06:23;;;;;;;9.57;4.70;;;8.10;99.90;;;;;;5055579;28;20190;-64
2022/11/26 08:08:49;;;;;;;11.00;4.73;;;8.40;99.90;;;;;;5071301;28;20203;-64
2022/11/26 08:11:24;;;;;;;7.77;5.80;;;8.40;99.90;;;;;;5058485;28;20186;-64
2022/11/26 08:14:19;;;;;;;15.60;4.90;;;8.60;99.90;;;;;;5069974;28;20300;-64
2022/11/26 08:16:45;;;;;;;6.17;5.43;;;8.50;99.90;;;;;;5063534;28;20241;-64
2022/11/26 08:19:12;;;;;;;13.70;6.80;;;8.50;99.90;;;;;;5056673;28;20715;-64
2022/11/26 08:21:38;;;;;;;11.43;6.23;;;8.70;99.90;;;;;;5063121;28;20631;-64
2022/11/26 08:24:06;;;;;;;10.17;5.73;;;8.80;99.90;;;;;;5069295;28;20338;-63
2022/11/26 08:26:31;;;;;;;15.67;9.03;;;8.90;99.90;;;;;;5069625;28;20185;-64
2022/11/26 08:28:58;;;;;;;11.37;6.60;;;8.90;99.90;;;;;;5063538;28;20201;-64
2022/11/26 08:31:26;;;;;;;14.30;6.73;;;9.00;99.90;;;;;;5048451;28;20652;-65
2022/11/26 08:33:54;;;;;;;12.27;5.73;;;9.00;99.90;;;;;;5060700;28;20602;-64
2022/11/26 08:36:20;;;;;;;12.03;6.67;;;9.00;99.90;;;;;;5059028;28;20206;-64
2022/11/26 08:38:45;;;;;;;10.57;5.83;;;9.10;99.90;;;;;;5058976;28;20189;-63
2022/11/26 08:41:12;;;;;;;14.63;7.17;;;9.10;99.90;;;;;;5062208;28;20200;-64
2022/11/26 08:43:38;;;;;;;17.73;6.97;;;9.10;99.90;;;;;;5056764;28;20190;-65
2022/11/26 08:46:04;;;;;;;13.20;5.60;;;9.20;99.90;;;;;;5064112;28;20190;-63
2022/11/26 08:48:31;;;;;;;11.43;6.27;;;9.30;99.90;;;;;;5062192;28;20272;-67
2022/11/26 08:51:05;;;;;;;17.20;5.73;;;9.30;99.90;;;;;;5060566;28;20193;-65
2022/11/26 08:53:32;;;;;;;13.77;6.50;;;9.40;99.90;;;;;;5060883;28;20181;-65
2022/11/26 08:56:04;;;;;;;13.33;5.67;;;9.30;99.90;;;;;;5058422;28;20205;-65
2022/11/26 08:58:32;;;;;;;11.50;5.57;;;9.40;99.90;;;;;;5071826;28;20186;-65
2022/11/26 09:00:58;;;;;;;13.93;5.27;;;9.50;99.90;;;;;;5063183;28;20627;-65
2022/11/26 09:03:24;;;;;;;13.60;6.03;;;9.30;99.90;;;;;;5066140;28;20202;-65
2022/11/26 09:05:49;;;;;;;10.93;6.17;;;9.60;99.90;;;;;;5063414;28;20236;-65
2022/11/26 09:08:15;;;;;;;10.40;5.57;;;9.60;99.90;;;;;;5069446;28;20189;-65
2022/11/26 09:10:41;;;;;;;11.27;4.60;;;9.80;99.90;;;;;;5066960;28;20186;-65
2022/11/26 09:13:06;;;;;;;7.97;4.70;;;10.00;99.90;;;;;;5045330;28;20237;-66
2022/11/26 09:15:32;;;;;;;13.50;4.77;;;9.90;99.90;;;;;;5059892;28;20212;-64
2022/11/26 09:18:02;;;;;;;14.20;5.83;;;9.90;99.90;;;;;;5057252;28;20184;-65
2022/11/26 09:20:28;;;;;;;8.23;5.00;;;9.70;99.90;;;;;;5056578;28;20186;-64
2022/11/26 09:22:54;;;;;;;12.20;5.33;;;9.70;99.90;;;;;;5064001;28;20186;-65
2022/11/26 09:25:19;;;;;;;14.00;6.17;;;9.90;99.90;;;;;;5060214;28;20251;-65
2022/11/26 09:27:45;;;;;;;11.53;5.47;;;10.00;99.90;;;;;;5059244;28;20190;-65
2022/11/26 09:30:12;;;;;;;9.87;4.23;;;10.20;99.90;;;;;;5053252;28;20260;-65
2022/11/26 09:32:38;;;;;;;10.00;5.07;;;10.30;99.90;;;;;;5071878;28;20681;-64
2022/11/26 09:35:04;;;;;;;19.77;5.13;;;10.40;99.90;;;;;;5062755;28;20216;-64
2022/11/26 09:37:30;;;;;;;17.30;5.47;;;10.50;99.90;;;;;;5068482;28;20698;-65
2022/11/26 09:39:56;;;;;;;18.73;4.97;;;10.50;99.90;;;;;;5052916;28;20186;-65
2022/11/26 09:42:56;;;;;;;8.30;5.00;;;10.50;99.90;;;;;;5068723;28;20196;-65
2022/11/26 09:45:48;;;;;;;12.73;5.40;;;10.40;99.90;;;;;;5053873;28;20182;-64
2022/11/26 09:48:20;;;;;;;11.50;5.67;;;10.30;99.90;;;;;;5065268;28;20178;-66
2022/11/26 09:50:49;;;;;;;11.38;4.38;;;10.30;99.90;;;;;;5064337;28;20234;-66
2022/11/26 09:53:18;;;;;;;12.75;4.47;;;10.20;99.90;;;;;;5058910;28;20201;-65
2022/11/26 09:55:51;;;;;;;10.43;3.80;;;10.30;99.90;;;;;;5057095;28;20309;-65
2022/11/26 09:58:44;;;;;;;11.40;3.97;;;10.20;99.90;;;;;;5057213;28;20245;-65
2022/11/26 10:01:17;;;;;;;12.77;4.45;;;10.40;99.90;;;;;;5063083;28;20204;-66
2022/11/26 10:03:43;;;;;;;14.70;4.10;;;10.30;99.90;;;;;;5062670;28;20223;-65
2022/11/26 10:06:29;;;;;;;10.47;4.13;;;10.30;99.90;;;;;;5063241;28;20193;-66
2022/11/26 10:09:07;;;;;;;8.83;3.93;;;10.40;99.90;;;;;;5053224;28;20232;-66
2022/11/26 10:11:40;;;;;;;16.60;4.93;;;10.50;99.90;;;;;;5053921;28;20182;-65
2022/11/26 10:14:12;;;;;;;15.13;5.03;;;10.50;99.90;;;;;;5052394;28;20193;-66
2022/11/26 10:16:42;;;;;;;10.97;6.00;;;10.60;99.90;;;;;;5052135;28;20613;-66
2022/11/26 10:19:19;;;;;;;8.10;4.00;;;10.60;99.90;;;;;;5064642;28;20232;-65
2022/11/26 10:21:54;;;;;;;9.90;5.27;;;10.60;99.90;;;;;;5053093;28;20190;-65
2022/11/26 10:24:29;;;;;;;12.90;4.33;;;10.60;99.90;;;;;;5056111;28;20192;-66
2022/11/26 10:26:56;;;;;;;16.47;4.97;;;10.80;99.90;;;;;;5071274;28;20260;-65
2022/11/26 10:29:25;;;;;;;13.57;6.03;;;10.80;99.90;;;;;;5052641;28;20681;-66
2022/11/26 10:31:58;;;;;;;17.20;8.00;;;10.80;99.90;;;;;;5051585;28;20204;-64
2022/11/26 10:34:38;;;;;;;7.30;4.65;;;10.70;99.90;;;;;;5061995;28;20654;-65
2022/11/26 10:37:04;;;;;;;14.25;5.70;;;10.70;99.90;;;;;;5066433;28;20205;-66
2022/11/26 10:39:30;;;;;;;10.82;4.80;;;10.90;99.90;;;;;;5063520;28;20190;-65
2022/11/26 10:41:55;;;;;;;15.18;6.25;;;11.10;99.90;;;;;;5055553;28;20188;-66
2022/11/26 10:44:33;;;;;;;12.20;4.13;;;11.20;99.90;;;;;;5060438;28;20182;-65
2022/11/26 10:47:18;;;;;;;8.77;4.32;;;11.30;99.90;;;;;;5060840;28;20193;-65
2022/11/26 10:49:43;;;;;;;10.75;4.47;;;11.20;99.90;;;;;;5065470;28;20224;-65
2022/11/26 10:52:13;;;;;;;14.52;4.65;;;11.30;99.90;;;;;;5065873;28;20189;-65
2022/11/26 10:54:40;;;;;;;9.27;4.68;;;11.30;99.90;;;;;;5063774;28;20208;-66
2022/11/26 10:57:08;;;;;;;12.32;5.05;;;11.40;99.90;;;;;;5059931;28;20235;-64
2022/11/26 10:59:43;;;;;;;7.53;4.57;;;11.50;99.90;;;;;;5054048;28;20194;-64
2022/11/26 11:02:40;;;;;;;11.35;5.50;;;11.40;99.90;;;;;;5066669;28;20189;-64
2022/11/26 11:05:08;;;;;;;11.82;4.45;;;11.40;99.90;;;;;;5064741;28;20662;-63
2022/11/26 11:07:36;;;;;;;6.25;3.80;;;11.30;99.90;;;;;;5058724;28;20182;-64
2022/11/26 11:10:08;;;;;;;6.10;3.55;;;11.40;99.90;;;;;;5071196;28;20264;-64
2022/11/26 11:12:35;;;;;;;10.20;3.92;;;11.30;99.90;;;;;;5053407;28;20288;-64
2022/11/26 11:15:22;;;;;;;12.45;4.25;;;11.30;99.90;;;;;;5051706;28;20190;-63
2022/11/26 11:18:04;;;;;;;9.82;3.53;;;11.30;99.90;;;;;;5064427;28;20639;-63
2022/11/26 11:20:36;;;;;;;8.10;3.50;;;11.20;99.90;;;;;;5054560;28;20194;-64
2022/11/26 11:23:10;;;;;;;14.65;4.20;;;11.30;99.90;;;;;;5058909;28;20178;-64
2022/11/26 11:25:39;;;;;;;13.55;3.25;;;11.00;99.90;;;;;;5069727;28;20654;-64
2022/11/26 11:28:20;;;;;;;8.98;3.55;;;11.00;99.90;;;;;;5053817;28;20507;-65
2022/11/26 11:30:55;;;;;;;10.60;4.60;;;11.00;99.90;;;;;;5059489;28;20185;-63
2022/11/26 11:33:24;;;;;;;16.15;3.53;;;11.10;99.90;;;;;;5055459;28;20185;-62
2022/11/26 11:36:28;;;;;;;6.43;2.90;;;11.30;99.90;;;;;;5057023;28;20210;-63
2022/11/26 11:38:56;;;;;;;4.00;2.30;;;11.40;99.90;;;;;;5073916;28;20189;-63
2022/11/26 11:41:29;;;;;;;8.68;3.67;;;11.40;99.90;;;;;;5062116;28;20185;-63
2022/11/26 11:44:02;;;;;;;5.55;2.78;;;11.20;99.90;;;;;;5066757;28;20182;-62
2022/11/26 11:47:26;;;;;;;12.15;3.13;;;11.40;99.90;;;;;;5056570;28;20178;-63
2022/11/26 11:50:07;;;;;;;9.43;2.70;;;11.50;99.90;;;;;;5051025;28;20182;-62
2022/11/26 11:52:56;;;;;;;10.32;2.60;;;11.40;99.90;;;;;;5052982;28;20189;-63
2022/11/26 11:55:28;;;;;;;7.82;2.67;;;11.50;99.90;;;;;;5057077;28;20245;-63
2022/11/26 11:57:59;;;;;;;10.75;3.50;;;11.60;99.90;;;;;;5068084;28;20188;-63
2022/11/26 12:00:54;;;;;;;5.40;2.88;;;11.70;99.90;;;;;;5067432;28;20186;-62
2022/11/26 12:04:01;;;;;;;5.90;3.95;;;11.70;99.90;;;;;;5063541;28;20268;-62
2022/11/26 12:06:40;;;;;;;8.55;3.35;;;12.00;99.90;;;;;;5059072;28;20228;-62
2022/11/26 12:09:41;;;;;;;9.23;2.58;;;12.10;99.90;;;;;;5059430;28;20189;-62
2022/11/26 12:12:21;;;;;;;8.77;2.72;;;12.00;99.90;;;;;;5067614;28;20189;-62
2022/11/26 12:14:54;;;;;;;15.98;3.25;;;12.00;99.90;;;;;;5057716;28;20253;-62
2022/11/26 12:17:37;;;;;;;18.27;4.68;;;12.10;99.90;;;;;;5055988;28;20205;-62
2022/11/26 12:20:21;;;;;;;7.40;4.30;;;12.10;99.90;;;;;;5066787;28;20189;-62
2022/11/26 12:23:05;;;;;;;12.63;6.80;;;12.10;99.90;;;;;;5067794;28;20536;-62
2022/11/26 12:25:36;;;;;;;22.67;6.55;;;12.10;99.90;;;;;;5055000;28;20178;-62
2022/11/26 12:28:11;;;;;;;9.15;3.80;;;12.10;99.90;;;;;;5073461;28;20177;-62
2022/11/26 12:30:55;;;;;;;11.63;6.43;;;12.20;99.90;;;;;;5054829;28;20174;-61
2022/11/26 12:33:43;;;;;;;18.23;8.07;;;12.30;99.90;;;;;;5054998;28;20650;-62
2022/11/26 12:36:34;;;;;;;17.30;9.60;;;12.30;99.90;;;;;;5071546;28;20229;-63
2022/11/26 12:39:05;;;;;;;12.90;5.43;;;12.20;99.90;;;;;;5063800;28;20190;-62
2022/11/26 12:41:48;;;;;;;8.40;3.38;;;12.20;99.90;;;;;;5060843;28;20170;-63
2022/11/26 12:44:36;;;;;;;15.73;3.80;;;12.20;99.90;;;;;;5062986;28;20297;-61
2022/11/26 12:47:23;;;;;;;10.32;4.32;;;12.00;99.90;;;;;;5061424;28;20634;-62
2022/11/26 12:50:01;;;;;;;10.15;3.83;;;12.00;99.90;;;;;;5067559;28;20541;-62
2022/11/26 12:52:37;;;;;;;16.92;4.25;;;12.10;99.90;;;;;;5066055;28;20178;-63
2022/11/26 12:55:17;;;;;;;3.85;2.72;;;12.20;99.90;;;;;;5064879;28;20178;-62
2022/11/26 12:58:07;;;;;;;9.52;2.80;;;12.00;99.90;;;;;;5060814;28;20189;-63
2022/11/26 13:00:36;;;;;;;10.80;2.55;;;11.90;99.90;;;;;;5063020;28;20220;-67
2022/11/26 13:03:04;;;;;;;14.07;2.78;;;11.90;99.90;;;;;;5058720;28;20206;-61
2022/11/26 13:05:51;;;;;;;7.88;2.95;;;12.00;99.90;;;;;;5057989;28;20697;-62